< < Back
Terminal Aerodrome Forecast


Current Version              Previous Versions:   1  2  3  4  5  6  7  8  9  

Terminal Aerodrome Forecast

592
FTUS42 KCHS 300520
TAFSAV
TAF
KSAV 300520Z 3006/3106 24005KT P6SM SKC
     FM301800 22010KT P6SM SCT060
     FM302300 18007KT P6SM SCT080=



Latest METAR

811
SAUS80 KWBC 300900
MTRSAV
METAR KSAV 300853Z AUTO 22005KT 10SM CLR 27/22 A2997 RMK AO2 SLP147
T02670217 55000 TSNO


USA.gov is the U.S. government's official web portal to all federal, state and local government web resources and services.